sensor_id;sensor_type;location;lat;lon;timestamp;P1;durP1;ratioP1;P2;durP2;ratioP2
211;SDS011;16228;48.800;9.002;2023-04-06T00:00:13;13.20;;;11.23;;
211;SDS011;16228;48.800;9.002;2023-04-06T00:02:41;16.20;;;14.83;;
211;SDS011;16228;48.800;9.002;2023-04-06T00:05:08;15.53;;;14.03;;
211;SDS011;16228;48.800;9.002;2023-04-06T00:07:35;14.73;;;13.30;;
211;SDS011;16228;48.800;9.002;2023-04-06T00:10:05;14.00;;;12.70;;
211;SDS011;16228;48.800;9.002;2023-04-06T00:12:33;13.40;;;11.50;;
211;SDS011;16228;48.800;9.002;2023-04-06T00:14:59;14.33;;;12.37;;
211;SDS011;16228;48.800;9.002;2023-04-06T00:17:27;14.40;;;12.93;;
211;SDS011;16228;48.800;9.002;2023-04-06T00:19:54;16.70;;;12.47;;
211;SDS011;16228;48.800;9.002;2023-04-06T00:22:21;14.20;;;12.70;;
211;SDS011;16228;48.800;9.002;2023-04-06T00:24:48;14.53;;;12.17;;
211;SDS011;16228;48.800;9.002;2023-04-06T00:27:16;16.73;;;15.30;;
211;SDS011;16228;48.800;9.002;2023-04-06T00:29:43;14.63;;;13.33;;
211;SDS011;16228;48.800;9.002;2023-04-06T00:32:11;13.87;;;12.43;;
211;SDS011;16228;48.800;9.002;2023-04-06T00:34:38;15.03;;;13.63;;
211;SDS011;16228;48.800;9.002;2023-04-06T00:37:05;14.37;;;13.07;;
211;SDS011;16228;48.800;9.002;2023-04-06T00:39:32;13.37;;;12.07;;
211;SDS011;16228;48.800;9.002;2023-04-06T00:41:58;14.40;;;12.33;;
211;SDS011;16228;48.800;9.002;2023-04-06T00:44:27;15.77;;;13.30;;
211;SDS011;16228;48.800;9.002;2023-04-06T00:46:54;13.87;;;12.43;;
211;SDS011;16228;48.800;9.002;2023-04-06T00:49:21;14.90;;;13.53;;
211;SDS011;16228;48.800;9.002;2023-04-06T00:51:48;13.80;;;12.43;;
211;SDS011;16228;48.800;9.002;2023-04-06T00:54:15;15.40;;;13.77;;
211;SDS011;16228;48.800;9.002;2023-04-06T00:56:42;15.97;;;14.37;;
211;SDS011;16228;48.800;9.002;2023-04-06T00:59:10;17.10;;;15.47;;
211;SDS011;16228;48.800;9.002;2023-04-06T01:01:38;15.57;;;12.83;;
211;SDS011;16228;48.800;9.002;2023-04-06T01:04:05;17.50;;;15.83;;
211;SDS011;16228;48.800;9.002;2023-04-06T01:06:32;16.97;;;15.33;;
211;SDS011;16228;48.800;9.002;2023-04-06T01:08:59;15.77;;;14.20;;
211;SDS011;16228;48.800;9.002;2023-04-06T01:11:26;13.63;;;12.33;;
211;SDS011;16228;48.800;9.002;2023-04-06T01:13:53;18.47;;;16.77;;
211;SDS011;16228;48.800;9.002;2023-04-06T01:16:21;15.73;;;13.93;;
211;SDS011;16228;48.800;9.002;2023-04-06T01:18:49;15.43;;;13.50;;
211;SDS011;16228;48.800;9.002;2023-04-06T01:21:16;14.20;;;12.60;;
211;SDS011;16228;48.800;9.002;2023-04-06T01:23:45;14.83;;;12.63;;
211;SDS011;16228;48.800;9.002;2023-04-06T01:26:12;16.40;;;13.13;;
211;SDS011;16228;48.800;9.002;2023-04-06T01:28:39;15.87;;;14.27;;
211;SDS011;16228;48.800;9.002;2023-04-06T01:31:07;15.03;;;13.53;;
211;SDS011;16228;48.800;9.002;2023-04-06T01:33:34;15.27;;;13.77;;
211;SDS011;16228;48.800;9.002;2023-04-06T01:36:02;15.93;;;14.33;;
211;SDS011;16228;48.800;9.002;2023-04-06T01:38:29;16.03;;;14.57;;
211;SDS011;16228;48.800;9.002;2023-04-06T01:40:57;14.73;;;13.33;;
211;SDS011;16228;48.800;9.002;2023-04-06T01:43:24;15.83;;;12.73;;
211;SDS011;16228;48.800;9.002;2023-04-06T01:45:51;15.13;;;13.63;;
211;SDS011;16228;48.800;9.002;2023-04-06T01:48:18;16.00;;;13.67;;
211;SDS011;16228;48.800;9.002;2023-04-06T01:50:45;17.83;;;16.03;;
211;SDS011;16228;48.800;9.002;2023-04-06T01:53:12;16.10;;;14.50;;
211;SDS011;16228;48.800;9.002;2023-04-06T01:55:39;15.63;;;14.13;;
211;SDS011;16228;48.800;9.002;2023-04-06T01:58:08;15.20;;;13.70;;
211;SDS011;16228;48.800;9.002;2023-04-06T02:00:35;17.03;;;13.77;;
211;SDS011;16228;48.800;9.002;2023-04-06T02:03:02;16.70;;;15.00;;
211;SDS011;16228;48.800;9.002;2023-04-06T02:05:30;16.00;;;12.93;;
211;SDS011;16228;48.800;9.002;2023-04-06T02:07:58;18.30;;;16.13;;
211;SDS011;16228;48.800;9.002;2023-04-06T02:10:25;15.47;;;13.87;;
211;SDS011;16228;48.800;9.002;2023-04-06T02:12:52;16.23;;;14.60;;
211;SDS011;16228;48.800;9.002;2023-04-06T02:15:20;15.70;;;13.97;;
211;SDS011;16228;48.800;9.002;2023-04-06T02:17:47;20.97;;;17.30;;
211;SDS011;16228;48.800;9.002;2023-04-06T02:20:14;17.40;;;14.10;;
211;SDS011;16228;48.800;9.002;2023-04-06T02:22:41;15.57;;;13.20;;
211;SDS011;16228;48.800;9.002;2023-04-06T02:25:08;16.80;;;14.73;;
211;SDS011;16228;48.800;9.002;2023-04-06T02:27:36;15.60;;;13.93;;
211;SDS011;16228;48.800;9.002;2023-04-06T02:30:03;14.70;;;13.30;;
211;SDS011;16228;48.800;9.002;2023-04-06T02:32:32;17.23;;;13.63;;
211;SDS011;16228;48.800;9.002;2023-04-06T02:34:59;16.00;;;13.27;;
211;SDS011;16228;48.800;9.002;2023-04-06T02:37:26;15.83;;;13.53;;
211;SDS011;16228;48.800;9.002;2023-04-06T02:39:53;18.23;;;15.43;;
211;SDS011;16228;48.800;9.002;2023-04-06T02:42:20;15.40;;;13.73;;
211;SDS011;16228;48.800;9.002;2023-04-06T02:44:47;19.87;;;16.33;;
211;SDS011;16228;48.800;9.002;2023-04-06T02:47:14;17.80;;;14.97;;
211;SDS011;16228;48.800;9.002;2023-04-06T02:49:42;15.87;;;14.27;;
211;SDS011;16228;48.800;9.002;2023-04-06T02:52:09;16.47;;;13.50;;
211;SDS011;16228;48.800;9.002;2023-04-06T02:54:36;16.60;;;15.00;;
211;SDS011;16228;48.800;9.002;2023-04-06T02:57:03;20.77;;;15.13;;
211;SDS011;16228;48.800;9.002;2023-04-06T02:59:30;17.57;;;14.67;;
211;SDS011;16228;48.800;9.002;2023-04-06T03:01:57;18.00;;;14.40;;
211;SDS011;16228;48.800;9.002;2023-04-06T03:04:24;15.80;;;14.23;;
211;SDS011;16228;48.800;9.002;2023-04-06T03:06:53;16.93;;;14.30;;
211;SDS011;16228;48.800;9.002;2023-04-06T03:09:21;16.83;;;14.47;;
211;SDS011;16228;48.800;9.002;2023-04-06T03:11:48;17.00;;;14.57;;
211;SDS011;16228;48.800;9.002;2023-04-06T03:14:15;15.90;;;14.20;;
211;SDS011;16228;48.800;9.002;2023-04-06T03:16:46;16.67;;;14.83;;
211;SDS011;16228;48.800;9.002;2023-04-06T03:19:13;17.17;;;14.73;;
211;SDS011;16228;48.800;9.002;2023-04-06T03:21:40;16.93;;;15.13;;
211;SDS011;16228;48.800;9.002;2023-04-06T03:24:09;20.23;;;14.10;;
211;SDS011;16228;48.800;9.002;2023-04-06T03:26:36;16.47;;;14.63;;
211;SDS011;16228;48.800;9.002;2023-04-06T03:29:03;17.37;;;15.53;;
211;SDS011;16228;48.800;9.002;2023-04-06T03:31:30;19.33;;;15.67;;
211;SDS011;16228;48.800;9.002;2023-04-06T03:33:57;16.40;;;14.67;;
211;SDS011;16228;48.800;9.002;2023-04-06T03:36:24;15.07;;;13.57;;
211;SDS011;16228;48.800;9.002;2023-04-06T03:38:51;18.60;;;15.23;;
211;SDS011;16228;48.800;9.002;2023-04-06T03:41:20;16.87;;;14.30;;
211;SDS011;16228;48.800;9.002;2023-04-06T03:43:47;17.30;;;15.03;;
211;SDS011;16228;48.800;9.002;2023-04-06T03:46:15;16.50;;;14.40;;
211;SDS011;16228;48.800;9.002;2023-04-06T03:48:42;18.80;;;15.50;;
211;SDS011;16228;48.800;9.002;2023-04-06T03:51:08;17.70;;;15.33;;
211;SDS011;16228;48.800;9.002;2023-04-06T03:53:35;17.20;;;14.60;;
211;SDS011;16228;48.800;9.002;2023-04-06T03:56:03;16.70;;;14.90;;
211;SDS011;16228;48.800;9.002;2023-04-06T03:58:32;16.37;;;14.70;;
211;SDS011;16228;48.800;9.002;2023-04-06T04:00:59;17.30;;;15.43;;
211;SDS011;16228;48.800;9.002;2023-04-06T04:03:26;17.70;;;15.80;;
211;SDS011;16228;48.800;9.002;2023-04-06T04:05:53;16.03;;;14.30;;
211;SDS011;16228;48.800;9.002;2023-04-06T04:08:21;20.20;;;15.97;;
211;SDS011;16228;48.800;9.002;2023-04-06T04:10:49;18.13;;;15.33;;
211;SDS011;16228;48.800;9.002;2023-04-06T04:13:16;17.70;;;15.77;;
211;SDS011;16228;48.800;9.002;2023-04-06T04:15:45;16.13;;;14.43;;
211;SDS011;16228;48.800;9.002;2023-04-06T04:18:12;17.93;;;15.87;;
211;SDS011;16228;48.800;9.002;2023-04-06T04:20:39;16.47;;;14.83;;
211;SDS011;16228;48.800;9.002;2023-04-06T04:23:06;17.33;;;14.63;;
211;SDS011;16228;48.800;9.002;2023-04-06T04:25:33;15.67;;;14.07;;
211;SDS011;16228;48.800;9.002;2023-04-06T04:28:00;18.47;;;15.10;;
211;SDS011;16228;48.800;9.002;2023-04-06T04:30:27;20.33;;;16.33;;
211;SDS011;16228;48.800;9.002;2023-04-06T04:32:56;17.77;;;14.73;;
211;SDS011;16228;48.800;9.002;2023-04-06T04:35:23;20.20;;;14.97;;
211;SDS011;16228;48.800;9.002;2023-04-06T04:37:50;21.77;;;16.47;;
211;SDS011;16228;48.800;9.002;2023-04-06T04:40:17;18.90;;;14.40;;
211;SDS011;16228;48.800;9.002;2023-04-06T04:42:44;21.57;;;15.83;;
211;SDS011;16228;48.800;9.002;2023-04-06T04:45:11;18.13;;;15.43;;
211;SDS011;16228;48.800;9.002;2023-04-06T04:47:38;18.63;;;16.83;;
211;SDS011;16228;48.800;9.002;2023-04-06T04:50:07;18.73;;;16.73;;
211;SDS011;16228;48.800;9.002;2023-04-06T04:52:34;21.30;;;16.73;;
211;SDS011;16228;48.800;9.002;2023-04-06T04:55:01;17.23;;;15.40;;
211;SDS011;16228;48.800;9.002;2023-04-06T04:57:28;18.23;;;15.67;;
211;SDS011;16228;48.800;9.002;2023-04-06T04:59:56;20.53;;;16.57;;
211;SDS011;16228;48.800;9.002;2023-04-06T05:02:23;21.07;;;16.93;;
211;SDS011;16228;48.800;9.002;2023-04-06T05:04:50;23.07;;;18.83;;
211;SDS011;16228;48.800;9.002;2023-04-06T05:07:18;23.13;;;18.87;;
211;SDS011;16228;48.800;9.002;2023-04-06T05:09:46;22.70;;;18.27;;
211;SDS011;16228;48.800;9.002;2023-04-06T05:12:13;19.53;;;17.17;;
211;SDS011;16228;48.800;9.002;2023-04-06T05:14:40;24.03;;;16.97;;
211;SDS011;16228;48.800;9.002;2023-04-06T05:17:07;23.40;;;17.40;;
211;SDS011;16228;48.800;9.002;2023-04-06T05:19:34;21.07;;;16.70;;
211;SDS011;16228;48.800;9.002;2023-04-06T05:22:02;17.60;;;15.07;;
211;SDS011;16228;48.800;9.002;2023-04-06T05:24:30;19.67;;;16.10;;
211;SDS011;16228;48.800;9.002;2023-04-06T05:26:57;21.73;;;16.60;;
211;SDS011;16228;48.800;9.002;2023-04-06T05:29:25;20.60;;;16.83;;
211;SDS011;16228;48.800;9.002;2023-04-06T05:31:52;19.23;;;17.27;;
211;SDS011;16228;48.800;9.002;2023-04-06T05:34:19;18.83;;;15.20;;
211;SDS011;16228;48.800;9.002;2023-04-06T05:36:46;17.70;;;15.80;;
211;SDS011;16228;48.800;9.002;2023-04-06T05:39:13;18.47;;;15.40;;
211;SDS011;16228;48.800;9.002;2023-04-06T05:41:42;19.73;;;14.63;;
211;SDS011;16228;48.800;9.002;2023-04-06T05:44:09;18.00;;;15.80;;
211;SDS011;16228;48.800;9.002;2023-04-06T05:46:35;16.97;;;15.17;;
211;SDS011;16228;48.800;9.002;2023-04-06T05:49:02;18.27;;;16.43;;
211;SDS011;16228;48.800;9.002;2023-04-06T05:51:29;16.77;;;15.03;;
211;SDS011;16228;48.800;9.002;2023-04-06T05:53:56;15.03;;;13.50;;
211;SDS011;16228;48.800;9.002;2023-04-06T05:56:24;16.23;;;14.37;;
211;SDS011;16228;48.800;9.002;2023-04-06T05:58:52;15.80;;;14.33;;
211;SDS011;16228;48.800;9.002;2023-04-06T06:01:19;16.30;;;14.63;;
211;SDS011;16228;48.800;9.002;2023-04-06T06:03:46;18.83;;;11.93;;
211;SDS011;16228;48.800;9.002;2023-04-06T06:06:13;17.13;;;13.20;;
211;SDS011;16228;48.800;9.002;2023-04-06T06:08:40;14.00;;;12.17;;
211;SDS011;16228;48.800;9.002;2023-04-06T06:11:07;13.10;;;11.70;;
211;SDS011;16228;48.800;9.002;2023-04-06T06:13:34;15.60;;;10.23;;
211;SDS011;16228;48.800;9.002;2023-04-06T06:16:03;13.70;;;8.87;;
211;SDS011;16228;48.800;9.002;2023-04-06T06:18:30;12.33;;;9.40;;
211;SDS011;16228;48.800;9.002;2023-04-06T06:20:58;15.50;;;9.40;;
211;SDS011;16228;48.800;9.002;2023-04-06T06:23:25;12.53;;;9.27;;
211;SDS011;16228;48.800;9.002;2023-04-06T06:25:52;14.73;;;9.33;;
211;SDS011;16228;48.800;9.002;2023-04-06T06:28:19;15.50;;;7.93;;
211;SDS011;16228;48.800;9.002;2023-04-06T06:30:46;12.47;;;8.70;;
211;SDS011;16228;48.800;9.002;2023-04-06T06:33:14;12.70;;;8.60;;
211;SDS011;16228;48.800;9.002;2023-04-06T06:35:41;8.63;;;7.70;;
211;SDS011;16228;48.800;9.002;2023-04-06T06:38:08;12.47;;;8.30;;
211;SDS011;16228;48.800;9.002;2023-04-06T06:40:35;10.30;;;7.80;;
211;SDS011;16228;48.800;9.002;2023-04-06T06:43:02;9.73;;;7.73;;
211;SDS011;16228;48.800;9.002;2023-04-06T06:45:29;11.00;;;7.20;;
211;SDS011;16228;48.800;9.002;2023-04-06T06:47:57;9.60;;;8.47;;
211;SDS011;16228;48.800;9.002;2023-04-06T06:50:27;10.23;;;7.77;;
211;SDS011;16228;48.800;9.002;2023-04-06T06:52:54;8.73;;;7.83;;
211;SDS011;16228;48.800;9.002;2023-04-06T06:55:21;9.93;;;7.00;;
211;SDS011;16228;48.800;9.002;2023-04-06T06:57:48;10.67;;;7.30;;
211;SDS011;16228;48.800;9.002;2023-04-06T07:00:15;11.27;;;7.10;;
211;SDS011;16228;48.800;9.002;2023-04-06T07:02:42;7.30;;;6.60;;
211;SDS011;16228;48.800;9.002;2023-04-06T07:05:09;9.00;;;7.03;;
211;SDS011;16228;48.800;9.002;2023-04-06T07:07:38;8.57;;;7.67;;
211;SDS011;16228;48.800;9.002;2023-04-06T07:10:05;11.37;;;7.40;;
211;SDS011;16228;48.800;9.002;2023-04-06T07:12:32;10.27;;;7.17;;
211;SDS011;16228;48.800;9.002;2023-04-06T07:15:00;14.23;;;7.63;;
211;SDS011;16228;48.800;9.002;2023-04-06T07:17:27;8.93;;;7.50;;
211;SDS011;16228;48.800;9.002;2023-04-06T07:19:54;9.13;;;7.00;;
211;SDS011;16228;48.800;9.002;2023-04-06T07:22:21;8.73;;;7.20;;
211;SDS011;16228;48.800;9.002;2023-04-06T07:24:49;10.43;;;6.20;;
211;SDS011;16228;48.800;9.002;2023-04-06T07:27:16;9.17;;;6.90;;
211;SDS011;16228;48.800;9.002;2023-04-06T07:29:43;7.40;;;6.70;;
211;SDS011;16228;48.800;9.002;2023-04-06T07:32:11;8.43;;;7.07;;
211;SDS011;16228;48.800;9.002;2023-04-06T07:34:38;8.67;;;6.77;;
211;SDS011;16228;48.800;9.002;2023-04-06T07:37:05;9.33;;;6.83;;
211;SDS011;16228;48.800;9.002;2023-04-06T07:39:32;7.87;;;6.33;;
211;SDS011;16228;48.800;9.002;2023-04-06T07:42:00;9.60;;;7.23;;
211;SDS011;16228;48.800;9.002;2023-04-06T07:44:27;10.87;;;7.80;;
211;SDS011;16228;48.800;9.002;2023-04-06T07:46:54;8.57;;;6.63;;
211;SDS011;16228;48.800;9.002;2023-04-06T07:49:21;8.60;;;6.90;;
211;SDS011;16228;48.800;9.002;2023-04-06T07:51:48;9.30;;;6.97;;
211;SDS011;16228;48.800;9.002;2023-04-06T07:54:15;7.80;;;6.63;;
211;SDS011;16228;48.800;9.002;2023-04-06T07:56:42;7.70;;;7.00;;
211;SDS011;16228;48.800;9.002;2023-04-06T07:59:10;8.30;;;7.33;;
211;SDS011;16228;48.800;9.002;2023-04-06T08:01:38;9.43;;;7.60;;
211;SDS011;16228;48.800;9.002;2023-04-06T08:04:05;8.10;;;7.07;;
211;SDS011;16228;48.800;9.002;2023-04-06T08:06:32;7.43;;;6.73;;
211;SDS011;16228;48.800;9.002;2023-04-06T08:09:00;8.13;;;6.80;;
211;SDS011;16228;48.800;9.002;2023-04-06T08:11:26;8.13;;;7.20;;
211;SDS011;16228;48.800;9.002;2023-04-06T08:13:53;8.20;;;7.13;;
211;SDS011;16228;48.800;9.002;2023-04-06T08:16:23;6.90;;;6.20;;
211;SDS011;16228;48.800;9.002;2023-04-06T08:18:50;7.53;;;6.77;;
211;SDS011;16228;48.800;9.002;2023-04-06T08:21:17;9.63;;;6.07;;
211;SDS011;16228;48.800;9.002;2023-04-06T08:23:44;6.10;;;5.50;;
211;SDS011;16228;48.800;9.002;2023-04-06T08:26:11;7.70;;;6.10;;
211;SDS011;16228;48.800;9.002;2023-04-06T08:28:38;9.30;;;6.30;;
211;SDS011;16228;48.800;9.002;2023-04-06T08:31:05;5.67;;;5.03;;
211;SDS011;16228;48.800;9.002;2023-04-06T08:33:34;7.07;;;5.47;;
211;SDS011;16228;48.800;9.002;2023-04-06T08:36:10;6.27;;;5.17;;
211;SDS011;16228;48.800;9.002;2023-04-06T08:38:38;8.07;;;5.33;;
211;SDS011;16228;48.800;9.002;2023-04-06T08:41:06;5.27;;;4.77;;
211;SDS011;16228;48.800;9.002;2023-04-06T08:43:35;5.77;;;5.10;;
211;SDS011;16228;48.800;9.002;2023-04-06T08:46:07;5.77;;;5.17;;
211;SDS011;16228;48.800;9.002;2023-04-06T08:48:36;5.47;;;4.93;;
211;SDS011;16228;48.800;9.002;2023-04-06T08:51:05;5.40;;;4.57;;
211;SDS011;16228;48.800;9.002;2023-04-06T08:53:32;6.47;;;5.87;;
211;SDS011;16228;48.800;9.002;2023-04-06T08:55:59;6.67;;;5.77;;
211;SDS011;16228;48.800;9.002;2023-04-06T08:58:28;5.77;;;5.27;;
211;SDS011;16228;48.800;9.002;2023-04-06T09:00:58;6.20;;;5.60;;
211;SDS011;16228;48.800;9.002;2023-04-06T09:03:27;6.07;;;5.57;;
211;SDS011;16228;48.800;9.002;2023-04-06T09:05:57;6.30;;;5.70;;
211;SDS011;16228;48.800;9.002;2023-04-06T09:08:25;6.33;;;5.37;;
211;SDS011;16228;48.800;9.002;2023-04-06T09:10:52;5.90;;;5.40;;
211;SDS011;16228;48.800;9.002;2023-04-06T09:13:19;7.73;;;5.80;;
211;SDS011;16228;48.800;9.002;2023-04-06T09:15:46;6.00;;;5.20;;
211;SDS011;16228;48.800;9.002;2023-04-06T09:18:27;6.80;;;6.17;;
211;SDS011;16228;48.800;9.002;2023-04-06T09:21:00;6.77;;;6.07;;
211;SDS011;16228;48.800;9.002;2023-04-06T09:23:28;7.80;;;6.33;;
211;SDS011;16228;48.800;9.002;2023-04-06T09:26:06;10.43;;;6.47;;
211;SDS011;16228;48.800;9.002;2023-04-06T09:28:43;5.90;;;5.33;;
211;SDS011;16228;48.800;9.002;2023-04-06T09:31:11;6.47;;;5.87;;
211;SDS011;16228;48.800;9.002;2023-04-06T09:33:40;6.70;;;5.67;;
211;SDS011;16228;48.800;9.002;2023-04-06T09:36:10;6.90;;;6.20;;
211;SDS011;16228;48.800;9.002;2023-04-06T09:38:39;7.73;;;6.33;;
211;SDS011;16228;48.800;9.002;2023-04-06T09:41:20;6.10;;;5.50;;
211;SDS011;16228;48.800;9.002;2023-04-06T09:43:49;7.27;;;6.57;;
211;SDS011;16228;48.800;9.002;2023-04-06T09:46:17;7.23;;;6.53;;
211;SDS011;16228;48.800;9.002;2023-04-06T09:48:47;7.40;;;6.57;;
211;SDS011;16228;48.800;9.002;2023-04-06T09:51:18;9.07;;;6.57;;
211;SDS011;16228;48.800;9.002;2023-04-06T09:53:47;7.07;;;6.37;;
211;SDS011;16228;48.800;9.002;2023-04-06T09:56:20;8.10;;;7.17;;
211;SDS011;16228;48.800;9.002;2023-04-06T09:58:52;7.77;;;6.97;;
211;SDS011;16228;48.800;9.002;2023-04-06T10:01:23;8.40;;;6.73;;
211;SDS011;16228;48.800;9.002;2023-04-06T10:03:55;7.60;;;6.90;;
211;SDS011;16228;48.800;9.002;2023-04-06T10:06:29;7.43;;;6.73;;
211;SDS011;16228;48.800;9.002;2023-04-06T10:09:01;8.07;;;7.07;;
211;SDS011;16228;48.800;9.002;2023-04-06T10:11:30;7.93;;;7.10;;
211;SDS011;16228;48.800;9.002;2023-04-06T10:13:58;7.80;;;7.00;;
211;SDS011;16228;48.800;9.002;2023-04-06T10:16:25;8.17;;;7.37;;
211;SDS011;16228;48.800;9.002;2023-04-06T10:18:54;8.63;;;6.90;;
211;SDS011;16228;48.800;9.002;2023-04-06T10:21:24;7.77;;;6.97;;
211;SDS011;16228;48.800;9.002;2023-04-06T10:23:55;7.90;;;7.20;;
211;SDS011;16228;48.800;9.002;2023-04-06T10:26:25;19.87;;;7.40;;
211;SDS011;16228;48.800;9.002;2023-04-06T10:28:52;8.87;;;8.07;;
211;SDS011;16228;48.800;9.002;2023-04-06T10:31:24;8.23;;;7.50;;
211;SDS011;16228;48.800;9.002;2023-04-06T10:33:55;8.90;;;8.10;;
211;SDS011;16228;48.800;9.002;2023-04-06T10:36:23;9.10;;;8.20;;
211;SDS011;16228;48.800;9.002;2023-04-06T10:38:57;8.60;;;7.60;;
211;SDS011;16228;48.800;9.002;2023-04-06T10:41:31;9.30;;;8.50;;
211;SDS011;16228;48.800;9.002;2023-04-06T10:43:59;9.00;;;8.00;;
211;SDS011;16228;48.800;9.002;2023-04-06T10:46:27;7.83;;;7.03;;
211;SDS011;16228;48.800;9.002;2023-04-06T10:48:55;7.93;;;7.07;;
211;SDS011;16228;48.800;9.002;2023-04-06T10:51:24;9.40;;;8.50;;
211;SDS011;16228;48.800;9.002;2023-04-06T10:53:53;8.07;;;7.30;;
211;SDS011;16228;48.800;9.002;2023-04-06T10:56:23;9.37;;;8.37;;
211;SDS011;16228;48.800;9.002;2023-04-06T10:58:53;9.77;;;8.77;;
211;SDS011;16228;48.800;9.002;2023-04-06T11:01:21;9.03;;;8.10;;
211;SDS011;16228;48.800;9.002;2023-04-06T11:03:49;9.33;;;8.40;;
211;SDS011;16228;48.800;9.002;2023-04-06T11:06:17;10.43;;;8.07;;
211;SDS011;16228;48.800;9.002;2023-04-06T11:08:45;8.50;;;7.70;;
211;SDS011;16228;48.800;9.002;2023-04-06T11:11:13;8.17;;;7.23;;
211;SDS011;16228;48.800;9.002;2023-04-06T11:13:45;8.50;;;7.77;;
211;SDS011;16228;48.800;9.002;2023-04-06T11:16:17;12.87;;;8.27;;
211;SDS011;16228;48.800;9.002;2023-04-06T11:18:48;12.47;;;8.70;;
211;SDS011;16228;48.800;9.002;2023-04-06T11:21:17;9.30;;;8.00;;
211;SDS011;16228;48.800;9.002;2023-04-06T11:23:44;9.47;;;8.47;;
211;SDS011;16228;48.800;9.002;2023-04-06T11:26:11;9.20;;;8.30;;
211;SDS011;16228;48.800;9.002;2023-04-06T11:28:39;8.73;;;7.73;;
211;SDS011;16228;48.800;9.002;2023-04-06T11:31:08;10.03;;;8.27;;
211;SDS011;16228;48.800;9.002;2023-04-06T11:33:35;10.77;;;8.27;;
211;SDS011;16228;48.800;9.002;2023-04-06T11:36:03;9.40;;;7.93;;
211;SDS011;16228;48.800;9.002;2023-04-06T11:38:31;9.33;;;6.83;;
211;SDS011;16228;48.800;9.002;2023-04-06T11:40:58;8.97;;;7.83;;
211;SDS011;16228;48.800;9.002;2023-04-06T11:43:27;8.87;;;8.07;;
211;SDS011;16228;48.800;9.002;2023-04-06T11:45:59;8.50;;;7.60;;
211;SDS011;16228;48.800;9.002;2023-04-06T11:48:28;8.57;;;7.40;;
211;SDS011;16228;48.800;9.002;2023-04-06T11:50:56;9.50;;;7.57;;
211;SDS011;16228;48.800;9.002;2023-04-06T11:53:25;8.33;;;7.30;;
211;SDS011;16228;48.800;9.002;2023-04-06T11:55:53;7.93;;;7.13;;
211;SDS011;16228;48.800;9.002;2023-04-06T11:58:20;8.07;;;7.00;;
211;SDS011;16228;48.800;9.002;2023-04-06T12:00:47;7.73;;;6.93;;
211;SDS011;16228;48.800;9.002;2023-04-06T12:03:14;8.47;;;7.67;;
211;SDS011;16228;48.800;9.002;2023-04-06T12:05:43;7.87;;;6.90;;
211;SDS011;16228;48.800;9.002;2023-04-06T12:08:10;8.00;;;7.20;;
211;SDS011;16228;48.800;9.002;2023-04-06T12:10:37;7.80;;;7.10;;
211;SDS011;16228;48.800;9.002;2023-04-06T12:13:04;11.97;;;7.73;;
211;SDS011;16228;48.800;9.002;2023-04-06T12:15:31;9.47;;;7.73;;
211;SDS011;16228;48.800;9.002;2023-04-06T12:17:58;8.33;;;7.53;;
211;SDS011;16228;48.800;9.002;2023-04-06T12:20:25;8.07;;;7.37;;
211;SDS011;16228;48.800;9.002;2023-04-06T12:22:54;7.70;;;6.47;;
211;SDS011;16228;48.800;9.002;2023-04-06T12:25:20;7.90;;;7.10;;
211;SDS011;16228;48.800;9.002;2023-04-06T12:27:48;7.70;;;7.00;;
211;SDS011;16228;48.800;9.002;2023-04-06T12:30:15;13.27;;;11.80;;
211;SDS011;16228;48.800;9.002;2023-04-06T12:32:42;7.30;;;6.60;;
211;SDS011;16228;48.800;9.002;2023-04-06T12:35:09;8.30;;;7.53;;
211;SDS011;16228;48.800;9.002;2023-04-06T12:37:37;9.67;;;8.63;;
211;SDS011;16228;48.800;9.002;2023-04-06T12:40:06;8.43;;;7.37;;
211;SDS011;16228;48.800;9.002;2023-04-06T12:42:35;9.40;;;8.17;;
211;SDS011;16228;48.800;9.002;2023-04-06T12:45:02;9.93;;;8.97;;
211;SDS011;16228;48.800;9.002;2023-04-06T12:47:30;7.83;;;7.03;;
211;SDS011;16228;48.800;9.002;2023-04-06T12:49:57;8.73;;;7.23;;
211;SDS011;16228;48.800;9.002;2023-04-06T12:52:24;7.77;;;7.00;;
211;SDS011;16228;48.800;9.002;2023-04-06T12:54:52;8.07;;;7.37;;
211;SDS011;16228;48.800;9.002;2023-04-06T12:57:20;8.57;;;7.27;;
211;SDS011;16228;48.800;9.002;2023-04-06T12:59:47;8.40;;;7.13;;
211;SDS011;16228;48.800;9.002;2023-04-06T13:02:15;7.50;;;6.70;;
211;SDS011;16228;48.800;9.002;2023-04-06T13:04:42;7.63;;;6.80;;
211;SDS011;16228;48.800;9.002;2023-04-06T13:07:09;8.00;;;7.23;;
211;SDS011;16228;48.800;9.002;2023-04-06T13:09:36;8.43;;;7.43;;
211;SDS011;16228;48.800;9.002;2023-04-06T13:12:03;8.53;;;7.30;;
211;SDS011;16228;48.800;9.002;2023-04-06T13:14:32;6.97;;;6.27;;
211;SDS011;16228;48.800;9.002;2023-04-06T13:16:59;6.10;;;5.50;;
211;SDS011;16228;48.800;9.002;2023-04-06T13:19:26;6.90;;;6.20;;
211;SDS011;16228;48.800;9.002;2023-04-06T13:21:53;8.77;;;6.70;;
211;SDS011;16228;48.800;9.002;2023-04-06T13:24:20;7.63;;;6.90;;
211;SDS011;16228;48.800;9.002;2023-04-06T13:26:48;8.40;;;6.23;;
211;SDS011;16228;48.800;9.002;2023-04-06T13:29:15;6.67;;;6.07;;
211;SDS011;16228;48.800;9.002;2023-04-06T13:31:43;6.73;;;6.03;;
211;SDS011;16228;48.800;9.002;2023-04-06T13:34:10;6.83;;;5.93;;
211;SDS011;16228;48.800;9.002;2023-04-06T13:36:37;6.63;;;5.97;;
211;SDS011;16228;48.800;9.002;2023-04-06T13:39:06;5.20;;;4.70;;
211;SDS011;16228;48.800;9.002;2023-04-06T13:41:33;7.13;;;5.70;;
211;SDS011;16228;48.800;9.002;2023-04-06T13:44:00;8.53;;;6.30;;
211;SDS011;16228;48.800;9.002;2023-04-06T13:46:27;7.40;;;5.20;;
211;SDS011;16228;48.800;9.002;2023-04-06T13:48:56;5.27;;;4.77;;
211;SDS011;16228;48.800;9.002;2023-04-06T13:51:23;5.57;;;4.80;;
211;SDS011;16228;48.800;9.002;2023-04-06T13:53:51;5.40;;;3.83;;
211;SDS011;16228;48.800;9.002;2023-04-06T13:56:18;3.93;;;3.63;;
211;SDS011;16228;48.800;9.002;2023-04-06T13:58:46;4.73;;;4.30;;
211;SDS011;16228;48.800;9.002;2023-04-06T14:01:13;4.37;;;3.97;;
211;SDS011;16228;48.800;9.002;2023-04-06T14:03:40;5.93;;;4.33;;
211;SDS011;16228;48.800;9.002;2023-04-06T14:06:12;5.17;;;4.67;;
211;SDS011;16228;48.800;9.002;2023-04-06T14:08:39;4.70;;;4.20;;
211;SDS011;16228;48.800;9.002;2023-04-06T14:11:06;4.67;;;4.23;;
211;SDS011;16228;48.800;9.002;2023-04-06T14:13:38;6.07;;;4.27;;
211;SDS011;16228;48.800;9.002;2023-04-06T14:16:05;5.90;;;4.17;;
211;SDS011;16228;48.800;9.002;2023-04-06T14:18:33;4.77;;;4.20;;
211;SDS011;16228;48.800;9.002;2023-04-06T14:21:00;5.30;;;4.27;;
211;SDS011;16228;48.800;9.002;2023-04-06T14:23:29;5.70;;;4.70;;
211;SDS011;16228;48.800;9.002;2023-04-06T14:26:03;5.27;;;4.47;;
211;SDS011;16228;48.800;9.002;2023-04-06T14:28:31;6.23;;;4.40;;
211;SDS011;16228;48.800;9.002;2023-04-06T14:31:00;9.13;;;4.57;;
211;SDS011;16228;48.800;9.002;2023-04-06T14:33:28;4.43;;;3.80;;
211;SDS011;16228;48.800;9.002;2023-04-06T14:35:56;5.63;;;4.03;;
211;SDS011;16228;48.800;9.002;2023-04-06T14:38:23;8.10;;;5.90;;
211;SDS011;16228;48.800;9.002;2023-04-06T14:40:53;5.83;;;4.87;;
211;SDS011;16228;48.800;9.002;2023-04-06T14:43:20;4.27;;;3.80;;
211;SDS011;16228;48.800;9.002;2023-04-06T14:45:47;6.23;;;5.27;;
211;SDS011;16228;48.800;9.002;2023-04-06T14:48:14;6.73;;;5.93;;
211;SDS011;16228;48.800;9.002;2023-04-06T14:50:51;6.97;;;5.03;;
211;SDS011;16228;48.800;9.002;2023-04-06T14:53:18;6.87;;;5.73;;
211;SDS011;16228;48.800;9.002;2023-04-06T14:55:45;8.40;;;5.77;;
211;SDS011;16228;48.800;9.002;2023-04-06T14:58:14;8.13;;;5.97;;
211;SDS011;16228;48.800;9.002;2023-04-06T15:00:41;7.70;;;6.30;;
211;SDS011;16228;48.800;9.002;2023-04-06T15:03:08;7.57;;;6.87;;
211;SDS011;16228;48.800;9.002;2023-04-06T15:05:35;8.87;;;6.30;;